createdAt,value
2019-06-20T00:00:37.855Z,3.40
2019-06-20T00:03:08.993Z,3.13
2019-06-20T00:05:39.857Z,3.17
2019-06-20T00:08:10.602Z,3.67
2019-06-20T00:10:41.453Z,3.70
2019-06-20T00:13:12.280Z,3.50
2019-06-20T00:15:42.974Z,3.90
2019-06-20T00:18:13.259Z,3.87
2019-06-20T00:20:43.643Z,4.03
2019-06-20T00:23:14.104Z,3.97
2019-06-20T00:25:44.601Z,4.20
2019-06-20T00:28:15.085Z,4.77
2019-06-20T00:30:45.680Z,4.57
2019-06-20T00:33:16.174Z,4.83
2019-06-20T00:35:46.442Z,5.10
2019-06-20T00:38:16.539Z,4.57
2019-06-20T00:40:46.967Z,4.80
2019-06-20T00:43:19.719Z,5.07
2019-06-20T00:45:50.186Z,4.77
2019-06-20T00:48:20.446Z,5.40
2019-06-20T00:50:51.279Z,5.97
2019-06-20T00:53:22.122Z,6.07
2019-06-20T00:55:52.312Z,5.80
2019-06-20T00:58:22.708Z,7.20
2019-06-20T01:00:53.582Z,6.90
2019-06-20T01:03:24.322Z,8.87
2019-06-20T01:05:54.836Z,9.57
2019-06-20T01:08:25.339Z,8.53
2019-06-20T01:10:55.813Z,9.33
2019-06-20T01:13:33.643Z,9.63
2019-06-20T01:15:58.193Z,9.50
2019-06-20T01:18:28.467Z,8.90
2019-06-20T01:20:58.983Z,8.93
2019-06-20T01:23:29.094Z,9.27
2019-06-20T01:25:59.396Z,10.10
2019-06-20T01:28:29.960Z,9.77
2019-06-20T01:31:00.384Z,11.03
2019-06-20T01:33:30.674Z,9.43
2019-06-20T01:36:01.338Z,9.70
2019-06-20T01:38:31.770Z,8.77
2019-06-20T01:41:05.859Z,10.03
2019-06-20T01:43:46.683Z,10.23
2019-06-20T01:46:06.143Z,9.07
2019-06-20T01:48:36.530Z,9.43
2019-06-20T01:51:07.102Z,9.87
2019-06-20T01:53:37.795Z,10.13
2019-06-20T01:56:08.496Z,9.00
2019-06-20T01:58:38.979Z,9.27
2019-06-20T02:01:09.385Z,9.57
2019-06-20T02:03:40.143Z,9.83
2019-06-20T02:06:10.994Z,10.87
2019-06-20T02:08:41.155Z,10.80
2019-06-20T02:11:11.598Z,11.23
2019-06-20T02:13:41.800Z,9.90
2019-06-20T02:16:12.187Z,9.73
2019-06-20T02:18:42.746Z,11.63
2019-06-20T02:21:13.421Z,10.33
2019-06-20T02:23:43.675Z,11.00
2019-06-20T02:26:13.983Z,11.00
2019-06-20T02:28:44.456Z,10.07
2019-06-20T02:31:14.748Z,9.67
2019-06-20T02:33:45.269Z,10.43
2019-06-20T02:36:15.903Z,10.20
2019-06-20T02:38:46.565Z,10.77
2019-06-20T02:41:17.122Z,9.50
2019-06-20T02:43:47.793Z,10.33
2019-06-20T02:46:18.726Z,10.17
2019-06-20T02:48:49.077Z,10.77
2019-06-20T02:51:22.690Z,10.17
2019-06-20T02:53:54.524Z,9.63
2019-06-20T02:56:24.714Z,10.13
2019-06-20T02:58:54.876Z,9.83
2019-06-20T03:01:26.039Z,9.67
2019-06-20T03:03:56.261Z,10.23
2019-06-20T03:06:26.678Z,8.40
2019-06-20T03:08:57.343Z,9.80
2019-06-20T03:11:27.725Z,8.50
2019-06-20T03:13:58.065Z,8.47
2019-06-20T03:16:28.655Z,8.13
2019-06-20T03:18:59.148Z,8.73
2019-06-20T03:21:29.754Z,8.77
2019-06-20T03:24:03.337Z,8.17
2019-06-20T03:26:34.365Z,8.00
2019-06-20T03:29:05.343Z,7.13
2019-06-20T03:31:36.031Z,7.73
2019-06-20T03:34:06.536Z,7.73
2019-06-20T03:36:36.869Z,7.13
2019-06-20T03:39:08.526Z,7.03
2019-06-20T03:41:39.167Z,7.77
2019-06-20T03:44:09.724Z,7.43
2019-06-20T03:46:40.594Z,7.43
2019-06-20T03:49:11.465Z,7.00
2019-06-20T03:51:42.251Z,7.60
2019-06-20T03:54:13.389Z,7.53
2019-06-20T03:56:44.500Z,7.40
2019-06-20T03:59:15.088Z,7.23
2019-06-20T04:01:49.102Z,6.70
2019-06-20T04:04:18.245Z,6.33
2019-06-20T04:06:50.891Z,6.07
2019-06-20T04:09:21.736Z,6.37
2019-06-20T04:11:52.087Z,5.90
2019-06-20T04:14:22.727Z,6.30
2019-06-20T04:16:53.263Z,5.77
2019-06-20T04:19:23.717Z,5.73
2019-06-20T04:21:55.056Z,6.80
2019-06-20T04:24:27.867Z,6.83
2019-06-20T04:26:58.025Z,6.50
2019-06-20T04:29:28.540Z,6.10
2019-06-20T04:31:59.199Z,6.33
2019-06-20T04:34:29.667Z,5.90
2019-06-20T04:37:00.582Z,6.37
2019-06-20T04:39:31.157Z,7.00
2019-06-20T04:42:01.422Z,7.30
2019-06-20T04:44:31.827Z,6.53
2019-06-20T04:47:07.778Z,6.40
2019-06-20T04:49:38.751Z,7.80
2019-06-20T04:52:09.352Z,7.30
2019-06-20T04:54:39.941Z,7.70
2019-06-20T04:57:10.450Z,6.97
2019-06-20T04:59:41.170Z,7.53
2019-06-20T05:02:14.882Z,7.63
2019-06-20T05:04:44.022Z,7.33
2019-06-20T05:07:19.711Z,7.90
2019-06-20T05:09:50.295Z,7.43
2019-06-20T05:12:20.867Z,7.20
2019-06-20T05:14:51.703Z,6.27
2019-06-20T05:17:22.485Z,6.43
2019-06-20T05:19:53.546Z,6.17
2019-06-20T05:22:24.088Z,6.47
2019-06-20T05:24:54.939Z,6.20
2019-06-20T05:27:25.567Z,7.17
2019-06-20T05:29:56.503Z,6.63
2019-06-20T05:32:26.758Z,7.70
2019-06-20T05:34:57.591Z,7.07
2019-06-20T05:37:28.308Z,6.57
2019-06-20T05:39:58.789Z,5.50
2019-06-20T05:42:29.782Z,6.00
2019-06-20T05:45:00.408Z,5.90
2019-06-20T05:47:31.707Z,5.17
2019-06-20T05:50:02.998Z,5.20
2019-06-20T05:52:33.825Z,5.87
2019-06-20T05:55:04.520Z,5.30
2019-06-20T05:57:34.638Z,5.47
2019-06-20T06:00:05.502Z,6.30
2019-06-20T06:02:36.296Z,6.93
2019-06-20T06:05:07.581Z,7.13
2019-06-20T06:07:38.362Z,7.07
2019-06-20T06:10:09.288Z,7.40
2019-06-20T06:12:39.978Z,7.80
2019-06-20T06:15:10.929Z,7.50
2019-06-20T06:17:42.134Z,8.57
2019-06-20T06:20:13.327Z,7.50
2019-06-20T06:22:44.871Z,7.93
2019-06-20T06:25:15.847Z,8.43
2019-06-20T06:27:46.171Z,8.77
2019-06-20T06:30:17.660Z,8.83
2019-06-20T06:32:48.388Z,9.07
2019-06-20T06:35:19.550Z,8.53
2019-06-20T06:37:50.606Z,9.83
2019-06-20T06:40:21.383Z,9.53
2019-06-20T06:42:51.820Z,10.13
2019-06-20T06:45:22.739Z,10.03
2019-06-20T06:47:53.358Z,10.37
2019-06-20T06:50:24.090Z,11.10
2019-06-20T06:52:54.500Z,12.73
2019-06-20T06:55:27.456Z,13.23
2019-06-20T06:57:57.675Z,12.67
2019-06-20T07:00:39.666Z,13.30
2019-06-20T07:03:10.405Z,14.97
2019-06-20T07:05:41.138Z,14.53
2019-06-20T07:08:11.883Z,15.70
2019-06-20T07:10:42.887Z,17.40
2019-06-20T07:13:13.752Z,16.23
2019-06-20T07:15:44.417Z,16.37
2019-06-20T07:18:15.533Z,17.73
2019-06-20T07:20:46.314Z,18.10
2019-06-20T07:23:16.702Z,18.53
2019-06-20T07:25:47.022Z,18.23
2019-06-20T07:28:17.481Z,18.57
2019-06-20T07:30:47.633Z,20.63
2019-06-20T07:33:18.404Z,19.23
2019-06-20T07:35:49.251Z,20.47
2019-06-20T07:38:20.116Z,21.53
2019-06-20T07:40:50.692Z,21.43
2019-06-20T07:43:23.994Z,21.23
2019-06-20T07:46:02.672Z,22.77
2019-06-20T07:48:27.212Z,24.13
2019-06-20T07:50:57.913Z,22.77
2019-06-20T07:53:28.619Z,21.03
2019-06-20T07:55:59.353Z,21.97
2019-06-20T07:58:31.789Z,21.87
2019-06-20T08:01:02.306Z,22.20
2019-06-20T08:03:33.011Z,23.23
2019-06-20T08:06:03.325Z,20.87
2019-06-20T08:08:33.768Z,21.80
2019-06-20T08:11:04.862Z,20.67
2019-06-20T08:13:35.176Z,21.03
2019-06-20T08:16:05.801Z,22.07
2019-06-20T08:18:36.408Z,21.03
2019-06-20T08:21:07.337Z,21.50
2019-06-20T08:23:38.171Z,21.83
2019-06-20T08:26:08.701Z,22.83
2019-06-20T08:28:39.236Z,21.70
2019-06-20T08:31:09.989Z,22.50
2019-06-20T08:33:40.271Z,22.13
2019-06-20T08:36:10.897Z,19.10
2019-06-20T08:38:41.152Z,15.87
2019-06-20T08:41:11.264Z,14.53
2019-06-20T08:43:41.508Z,13.70
2019-06-20T08:46:11.806Z,13.67
2019-06-20T08:48:42.606Z,12.93
2019-06-20T08:51:14.714Z,12.13
2019-06-20T08:53:45.668Z,12.63
2019-06-20T08:56:17.614Z,12.20
2019-06-20T08:58:48.360Z,11.87
2019-06-20T09:01:19.238Z,11.87
2019-06-20T09:03:50.062Z,11.70
2019-06-20T09:06:22.791Z,11.77
2019-06-20T09:08:53.798Z,12.30
2019-06-20T09:11:25.816Z,11.57
2019-06-20T09:13:57.187Z,10.17
2019-06-20T09:16:27.854Z,10.20
2019-06-20T09:18:58.487Z,11.20
2019-06-20T09:21:28.598Z,10.40
2019-06-20T09:23:59.932Z,11.53
2019-06-20T09:26:30.204Z,11.07
2019-06-20T09:29:00.362Z,10.20
2019-06-20T09:31:30.643Z,9.67
2019-06-20T09:34:04.910Z,10.27
2019-06-20T09:36:32.954Z,9.23
2019-06-20T09:39:03.851Z,10.00
2019-06-20T09:41:34.206Z,9.43
2019-06-20T09:44:05.101Z,9.50
2019-06-20T09:46:36.298Z,10.80
2019-06-20T09:49:07.059Z,10.87
2019-06-20T09:51:37.459Z,11.33
2019-06-20T09:54:08.077Z,10.93
2019-06-20T09:56:38.967Z,11.10
2019-06-20T09:59:26.697Z,10.13
2019-06-20T10:01:42.443Z,11.23
2019-06-20T10:04:13.254Z,9.97
2019-06-20T10:06:44.103Z,9.93
2019-06-20T10:09:14.472Z,9.73
2019-06-20T10:11:45.318Z,9.93
2019-06-20T10:14:16.749Z,9.97
2019-06-20T10:16:50.985Z,10.80
2019-06-20T10:19:20.363Z,9.20
2019-06-20T10:21:51.957Z,11.07
2019-06-20T10:24:25.310Z,11.10
2019-06-20T10:26:55.481Z,11.03
2019-06-20T10:29:26.009Z,11.33
2019-06-20T10:31:57.281Z,11.87
2019-06-20T10:34:31.065Z,12.73
2019-06-20T10:37:00.215Z,11.53
2019-06-20T10:39:31.049Z,11.80
2019-06-20T10:42:01.537Z,11.60
2019-06-20T10:44:31.916Z,10.43
2019-06-20T10:47:02.559Z,9.83
2019-06-20T10:49:33.492Z,8.53
2019-06-20T10:52:04.521Z,8.17
2019-06-20T10:54:35.530Z,7.63
2019-06-20T10:57:06.530Z,6.80
2019-06-20T10:59:37.346Z,6.80
2019-06-20T11:02:08.058Z,6.60
2019-06-20T11:04:40.553Z,6.43
2019-06-20T11:07:11.635Z,5.10
2019-06-20T11:09:42.899Z,5.00
2019-06-20T11:12:14.124Z,4.03
2019-06-20T11:14:44.724Z,3.80
2019-06-20T11:17:15.314Z,3.27
2019-06-20T11:19:47.974Z,3.03
2019-06-20T11:22:19.076Z,3.43
2019-06-20T11:24:49.877Z,2.97
2019-06-20T11:27:20.901Z,3.00
2019-06-20T11:29:51.601Z,2.70
2019-06-20T11:32:22.281Z,2.70
2019-06-20T11:34:54.344Z,3.57
2019-06-20T11:37:25.027Z,3.37
2019-06-20T11:39:55.846Z,2.93
2019-06-20T11:42:32.163Z,3.57
2019-06-20T11:45:02.998Z,4.10
2019-06-20T11:47:35.489Z,3.93
2019-06-20T11:50:06.886Z,3.63
2019-06-20T11:52:41.046Z,3.40
2019-06-20T11:55:10.590Z,3.73
2019-06-20T11:57:41.614Z,2.93
2019-06-20T12:00:13.246Z,3.92
2019-06-20T12:02:46.166Z,3.63
2019-06-20T12:05:17.472Z,3.97
2019-06-20T12:07:49.950Z,3.90
2019-06-20T12:10:20.982Z,4.50
2019-06-20T12:12:52.213Z,4.57
2019-06-20T12:15:23.022Z,4.43
2019-06-20T12:17:54.241Z,4.80
2019-06-20T12:20:25.905Z,4.30
2019-06-20T12:22:56.962Z,4.53
2019-06-20T12:25:28.310Z,4.40
2019-06-20T12:27:59.405Z,6.10
2019-06-20T12:30:30.517Z,4.17
2019-06-20T12:33:01.592Z,4.27
2019-06-20T12:35:32.649Z,4.67
2019-06-20T12:38:05.743Z,4.60
2019-06-20T12:40:39.143Z,4.37
2019-06-20T12:43:09.592Z,4.25
2019-06-20T12:46:33.975Z,4.08
2019-06-20T12:48:42.853Z,4.62
2019-06-20T12:51:44.800Z,4.40
2019-06-20T12:54:15.411Z,4.03
2019-06-20T12:56:46.348Z,4.05
2019-06-20T12:59:17.187Z,3.98
2019-06-20T13:01:49.948Z,3.77
2019-06-20T13:04:20.547Z,4.17
2019-06-20T13:06:51.436Z,4.40
2019-06-20T13:09:22.511Z,4.50
2019-06-20T13:11:53.412Z,4.97
2019-06-20T13:14:24.543Z,5.00
2019-06-20T13:16:55.499Z,5.17
2019-06-20T13:19:29.073Z,5.80
2019-06-20T13:21:59.924Z,5.47
2019-06-20T13:24:31.049Z,6.80
2019-06-20T13:27:01.769Z,7.07
2019-06-20T13:29:32.746Z,7.00
2019-06-20T13:32:04.651Z,6.57
2019-06-20T13:34:35.772Z,6.40
2019-06-20T13:37:06.837Z,5.60
2019-06-20T13:39:38.464Z,6.63
2019-06-20T13:42:11.169Z,6.70
2019-06-20T13:44:42.673Z,7.07
2019-06-20T13:47:14.908Z,6.42
2019-06-20T13:49:47.735Z,6.63
2019-06-20T13:52:18.564Z,5.83
2019-06-20T13:54:49.947Z,6.07
2019-06-20T13:57:21.234Z,6.37
2019-06-20T13:59:55.197Z,6.23
2019-06-20T14:02:28.642Z,5.87
2019-06-20T14:04:58.916Z,6.03
2019-06-20T14:07:57.589Z,5.67
2019-06-20T14:10:49.804Z,5.13
2019-06-20T14:13:20.992Z,6.10
2019-06-20T14:15:51.420Z,5.87
2019-06-20T14:18:22.715Z,5.53
2019-06-20T14:20:53.665Z,5.37
2019-06-20T14:23:25.732Z,5.50
2019-06-20T14:25:56.677Z,5.42
2019-06-20T14:28:27.809Z,5.03
2019-06-20T14:30:59.155Z,4.75
2019-06-20T14:33:31.915Z,6.20
2019-06-20T14:36:03.191Z,4.75
2019-06-20T14:38:34.418Z,4.92
2019-06-20T14:41:05.313Z,4.67
2019-06-20T14:43:36.082Z,4.65
2019-06-20T14:46:06.997Z,4.40
2019-06-20T14:48:37.752Z,6.22
2019-06-20T14:51:08.649Z,5.33
2019-06-20T14:53:39.476Z,4.25
2019-06-20T14:56:10.550Z,4.35
2019-06-20T14:58:41.135Z,5.25
2019-06-20T15:01:12.002Z,4.53
2019-06-20T15:03:45.550Z,5.03
2019-06-20T15:06:15.627Z,4.40
2019-06-20T15:08:47.590Z,4.67
2019-06-20T15:11:18.826Z,4.72
2019-06-20T15:13:51.221Z,5.23
2019-06-20T15:16:22.670Z,4.87
2019-06-20T15:18:54.122Z,4.80
2019-06-20T15:21:26.619Z,4.63
2019-06-20T15:23:57.637Z,4.90
2019-06-20T15:26:31.088Z,5.60
2019-06-20T15:29:06.057Z,5.23
2019-06-20T15:31:35.127Z,5.20
2019-06-20T15:34:15.877Z,5.13
2019-06-20T15:36:48.612Z,4.80
2019-06-20T15:39:20.144Z,4.90
2019-06-20T15:41:51.692Z,5.60
2019-06-20T15:44:22.813Z,4.80
2019-06-20T15:46:54.146Z,4.90
2019-06-20T15:49:25.290Z,6.20
2019-06-20T15:51:59.017Z,5.40
2019-06-20T15:54:28.993Z,5.63
2019-06-20T15:56:59.971Z,6.20
2019-06-20T15:59:31.104Z,5.07
2019-06-20T16:02:03.120Z,5.03
2019-06-20T16:04:34.667Z,5.97
2019-06-20T16:07:06.282Z,5.53
2019-06-20T16:09:38.070Z,6.60
2019-06-20T16:12:09.730Z,5.70
2019-06-20T16:14:40.948Z,6.03
2019-06-20T16:17:12.024Z,6.73
2019-06-20T16:19:43.647Z,7.10
2019-06-20T16:22:14.769Z,6.23
2019-06-20T16:24:45.872Z,6.83
2019-06-20T16:27:17.123Z,7.07
2019-06-20T16:29:48.106Z,6.13
2019-06-20T16:32:19.535Z,7.70
2019-06-20T16:34:53.307Z,6.50
2019-06-20T16:37:24.171Z,5.70
2019-06-20T16:39:55.286Z,4.73
2019-06-20T16:42:26.487Z,3.27
2019-06-20T16:44:57.411Z,3.37
2019-06-20T16:47:28.566Z,3.20
2019-06-20T16:50:02.292Z,3.43
2019-06-20T16:52:33.692Z,3.20
2019-06-20T16:55:05.127Z,2.60
2019-06-20T16:57:36.405Z,2.07
2019-06-20T17:00:11.506Z,2.23
2019-06-20T17:02:43.421Z,1.90
2019-06-20T17:05:15.263Z,2.43
2019-06-20T17:07:46.877Z,2.55
2019-06-20T17:10:21.085Z,2.70
2019-06-20T17:12:55.563Z,3.00
2019-06-20T17:15:32.046Z,3.27
2019-06-20T17:18:03.382Z,3.50
2019-06-20T17:20:35.088Z,3.70
2019-06-20T17:23:06.786Z,3.23
2019-06-20T17:25:41.273Z,3.63
2019-06-20T17:28:14.363Z,3.20
2019-06-20T17:30:45.361Z,3.27
2019-06-20T17:33:21.312Z,3.60
2019-06-20T17:35:54.630Z,3.77
2019-06-20T17:38:26.217Z,3.37
2019-06-20T17:40:57.613Z,3.90
2019-06-20T17:43:28.974Z,3.17
2019-06-20T17:46:02.612Z,3.87
2019-06-20T17:48:34.333Z,3.43
2019-06-20T17:51:11.992Z,3.50
2019-06-20T17:53:49.635Z,3.83
2019-06-20T17:56:27.602Z,3.33
2019-06-20T17:59:01.723Z,4.10
2019-06-20T18:01:37.077Z,4.40
2019-06-20T18:04:13.732Z,4.60
2019-06-20T18:06:45.796Z,4.43
2019-06-20T18:09:25.908Z,4.10
2019-06-20T18:11:57.613Z,4.43
2019-06-20T18:14:29.366Z,4.53
2019-06-20T18:17:02.739Z,4.73
2019-06-20T18:19:35.731Z,4.53
2019-06-20T18:22:24.070Z,4.30
2019-06-20T18:24:58.163Z,4.80
2019-06-20T18:27:30.472Z,4.80
2019-06-20T18:30:14.577Z,4.40
2019-06-20T18:32:52.329Z,4.47
2019-06-20T18:35:30.861Z,3.77
2019-06-20T18:38:08.416Z,4.47
2019-06-20T18:40:43.773Z,5.20
2019-06-20T18:43:19.552Z,4.60
2019-06-20T18:45:52.320Z,4.30
2019-06-20T18:48:25.048Z,4.60
2019-06-20T18:51:02.328Z,4.40
2019-06-20T18:53:34.057Z,4.63
2019-06-20T18:56:07.971Z,4.03
2019-06-20T18:58:41.274Z,4.03
2019-06-20T19:01:16.805Z,4.63
2019-06-20T19:03:49.937Z,5.43
2019-06-20T19:06:35.512Z,5.20
2019-06-20T19:08:59.460Z,5.43
2019-06-20T19:11:32.004Z,5.23
2019-06-20T19:14:04.992Z,5.37
2019-06-20T19:16:38.131Z,5.63
2019-06-20T19:19:10.807Z,5.70
2019-06-20T19:21:44.178Z,5.43
2019-06-20T19:24:18.345Z,6.10
2019-06-20T19:26:53.204Z,5.80
2019-06-20T19:29:27.859Z,5.07
2019-06-20T19:32:01.256Z,5.50
2019-06-20T19:34:35.394Z,5.50
2019-06-20T19:37:08.999Z,5.83
2019-06-20T19:39:45.820Z,6.37
2019-06-20T19:42:22.938Z,5.90
2019-06-20T19:45:04.896Z,6.10
2019-06-20T19:47:37.912Z,5.17
2019-06-20T19:50:13.011Z,5.43
2019-06-20T19:52:45.983Z,5.40
2019-06-20T19:55:19.906Z,5.27
2019-06-20T19:57:55.327Z,5.37
2019-06-20T20:00:28.219Z,5.20
2019-06-20T20:03:03.686Z,4.90
2019-06-20T20:05:36.996Z,6.33
2019-06-20T20:08:09.997Z,5.70
2019-06-20T20:10:50.209Z,5.60
2019-06-20T20:13:25.503Z,5.00
2019-06-20T20:15:57.870Z,5.00
2019-06-20T20:18:30.979Z,5.80
2019-06-20T20:21:02.923Z,5.40
2019-06-20T20:23:35.265Z,5.80
2019-06-20T20:26:15.432Z,5.00
2019-06-20T20:29:04.961Z,5.00
2019-06-20T20:31:40.659Z,5.70
2019-06-20T20:34:13.514Z,6.23
2019-06-20T20:36:47.782Z,6.43
2019-06-20T20:39:21.032Z,6.57
2019-06-20T20:41:54.015Z,7.07
2019-06-20T20:44:26.756Z,5.93
2019-06-20T20:46:59.539Z,7.20
2019-06-20T20:49:32.711Z,7.00
2019-06-20T20:52:05.052Z,8.53
2019-06-20T20:54:37.679Z,8.73
2019-06-20T20:57:11.718Z,7.23
2019-06-20T20:59:45.409Z,7.37
2019-06-20T21:02:19.221Z,7.17
2019-06-20T21:04:51.825Z,6.83
2019-06-20T21:07:25.332Z,6.90
2019-06-20T21:09:58.415Z,6.33
2019-06-20T21:12:31.681Z,6.77
2019-06-20T21:15:04.400Z,6.93
2019-06-20T21:17:37.058Z,6.77
2019-06-20T21:20:14.491Z,8.00
2019-06-20T21:22:47.129Z,7.13
2019-06-20T21:25:19.587Z,6.93
2019-06-20T21:27:51.604Z,7.57
2019-06-20T21:30:24.920Z,7.30
2019-06-20T21:32:56.821Z,7.47
2019-06-20T21:35:28.931Z,7.43
2019-06-20T21:38:01.062Z,7.23
2019-06-20T21:40:32.615Z,8.53
2019-06-20T21:43:06.757Z,8.03
2019-06-20T21:45:38.345Z,7.97
2019-06-20T21:48:10.992Z,7.10
2019-06-20T21:50:45.033Z,8.50
2019-06-20T21:53:17.281Z,7.63
2019-06-20T21:55:50.054Z,8.50
2019-06-20T21:58:21.323Z,7.43
2019-06-20T22:00:56.030Z,7.20
2019-06-20T22:03:27.317Z,7.00
2019-06-20T22:05:59.073Z,7.43
2019-06-20T22:08:30.272Z,6.37
2019-06-20T22:11:01.952Z,7.30
2019-06-20T22:13:33.606Z,7.10
2019-06-20T22:16:04.626Z,7.20
2019-06-20T22:18:35.905Z,6.67
2019-06-20T22:21:06.794Z,6.27
2019-06-20T22:23:37.526Z,6.13
2019-06-20T22:26:08.438Z,6.57
2019-06-20T22:28:39.740Z,6.27
2019-06-20T22:31:12.232Z,6.27
2019-06-20T22:33:45.674Z,6.10
2019-06-20T22:36:16.219Z,6.27
2019-06-20T22:38:48.000Z,7.10
2019-06-20T22:41:21.521Z,6.90
2019-06-20T22:43:53.863Z,6.83
2019-06-20T22:46:25.596Z,6.93
2019-06-20T22:48:56.196Z,7.03
2019-06-20T22:51:27.556Z,7.50
2019-06-20T22:54:00.009Z,7.17
2019-06-20T22:56:31.657Z,7.80
2019-06-20T22:59:02.863Z,6.87
2019-06-20T23:01:34.206Z,7.47
2019-06-20T23:04:06.334Z,6.57
2019-06-20T23:06:37.305Z,7.50
2019-06-20T23:09:09.307Z,6.60
2019-06-20T23:11:41.913Z,6.40
2019-06-20T23:14:15.201Z,5.97
2019-06-20T23:16:47.068Z,5.60
2019-06-20T23:19:19.263Z,6.03
2019-06-20T23:21:50.626Z,5.67
2019-06-20T23:24:21.449Z,5.87
2019-06-20T23:26:52.172Z,5.77
2019-06-20T23:29:23.051Z,6.10
2019-06-20T23:31:55.124Z,5.50
2019-06-20T23:34:26.616Z,5.10
2019-06-20T23:37:12.154Z,6.77
2019-06-20T23:39:32.613Z,5.80
2019-06-20T23:42:03.344Z,5.60
2019-06-20T23:44:35.792Z,5.97
2019-06-20T23:47:07.364Z,6.50
2019-06-20T23:49:38.159Z,6.57
2019-06-20T23:52:13.794Z,6.00
2019-06-20T23:54:44.765Z,6.47
2019-06-20T23:57:15.520Z,6.30
2019-06-20T23:59:46.296Z,6.53
